createdAt,value
2019-04-29T00:01:13.444Z,7.78
2019-04-29T00:05:18.419Z,7.08
2019-04-29T00:09:23.381Z,6.75
2019-04-29T00:13:28.165Z,6.67
2019-04-29T00:17:39.905Z,7.10
2019-04-29T00:21:44.920Z,6.30
2019-04-29T00:25:49.742Z,6.75
2019-04-29T00:29:54.739Z,6.62
2019-04-29T00:33:59.332Z,7.35
2019-04-29T00:38:22.036Z,7.00
2019-04-29T00:42:40.765Z,7.47
2019-04-29T00:46:46.015Z,7.22
2019-04-29T00:50:50.605Z,7.30
2019-04-29T00:55:01.286Z,6.80
2019-04-29T00:59:06.945Z,7.00
2019-04-29T01:03:11.679Z,7.67
2019-04-29T01:07:16.318Z,7.58
2019-04-29T01:11:21.029Z,7.03
2019-04-29T01:15:25.765Z,7.55
2019-04-29T01:19:30.493Z,7.90
2019-04-29T01:23:35.089Z,7.55
2019-04-29T01:27:45.500Z,8.35
2019-04-29T01:31:50.173Z,8.23
2019-04-29T01:36:23.178Z,8.78
2019-04-29T01:40:45.711Z,8.90
2019-04-29T01:44:50.553Z,9.35
2019-04-29T01:48:55.506Z,9.73
2019-04-29T01:53:01.463Z,10.25
2019-04-29T01:57:06.066Z,11.50
2019-04-29T02:01:10.779Z,11.83
2019-04-29T02:05:15.456Z,11.05
2019-04-29T02:09:45.686Z,11.63
2019-04-29T02:13:50.300Z,13.45
2019-04-29T02:17:54.943Z,11.80
2019-04-29T02:22:17.594Z,13.95
2019-04-29T02:26:22.199Z,14.18
2019-04-29T02:30:52.404Z,13.68
2019-04-29T02:34:57.111Z,14.28
2019-04-29T02:39:20.967Z,14.33
2019-04-29T02:43:28.799Z,15.68
2019-04-29T02:47:33.462Z,15.15
2019-04-29T02:51:48.157Z,14.65
2019-04-29T02:55:54.474Z,15.90
2019-04-29T03:00:08.014Z,15.88
2019-04-29T03:04:18.412Z,15.15
2019-04-29T03:08:23.010Z,15.13
2019-04-29T03:12:27.812Z,15.72
2019-04-29T03:16:32.564Z,17.02
2019-04-29T03:21:00.226Z,17.05
2019-04-29T03:25:05.178Z,17.07
2019-04-29T03:29:22.357Z,16.20
2019-04-29T03:33:27.385Z,18.52
2019-04-29T03:37:32.073Z,18.62
2019-04-29T03:41:36.678Z,19.50
2019-04-29T03:45:41.262Z,18.98
2019-04-29T03:49:45.975Z,19.10
2019-04-29T03:53:50.594Z,20.43
2019-04-29T03:57:55.924Z,19.25
2019-04-29T04:02:07.029Z,20.48
2019-04-29T04:06:24.588Z,21.27
2019-04-29T04:10:29.300Z,20.60
2019-04-29T04:14:33.967Z,21.60
2019-04-29T04:18:38.811Z,21.95
2019-04-29T04:22:47.430Z,23.15
2019-04-29T04:26:52.114Z,24.82
2019-04-29T04:30:56.731Z,24.50
2019-04-29T04:35:01.930Z,24.25
2019-04-29T04:39:07.747Z,24.15
2019-04-29T04:43:13.405Z,23.38
2019-04-29T04:47:19.869Z,25.10
2019-04-29T04:51:24.472Z,24.07
2019-04-29T04:55:31.581Z,22.80
2019-04-29T04:59:36.158Z,23.57
2019-04-29T05:03:40.772Z,25.57
2019-04-29T05:07:45.437Z,23.50
2019-04-29T05:11:50.275Z,24.32
2019-04-29T05:15:54.921Z,24.12
2019-04-29T05:19:59.913Z,23.98
2019-04-29T05:24:05.167Z,23.10
2019-04-29T05:28:09.828Z,23.62
2019-04-29T05:32:14.476Z,23.30
2019-04-29T05:36:34.125Z,24.50
2019-04-29T05:40:40.813Z,26.93
2019-04-29T05:45:03.626Z,25.62
2019-04-29T05:49:10.305Z,25.77
2019-04-29T05:53:18.738Z,26.70
2019-04-29T05:57:25.433Z,25.50
2019-04-29T06:01:31.004Z,25.85
2019-04-29T06:05:35.638Z,24.65
2019-04-29T06:09:40.296Z,24.20
2019-04-29T06:13:44.969Z,25.75
2019-04-29T06:17:50.568Z,24.57
2019-04-29T06:21:55.236Z,26.12
2019-04-29T06:25:59.877Z,26.02
2019-04-29T06:30:05.971Z,25.05
2019-04-29T06:34:10.737Z,24.37
2019-04-29T06:38:15.395Z,23.80
2019-04-29T06:42:20.475Z,23.95
2019-04-29T06:46:25.136Z,25.17
2019-04-29T06:50:30.149Z,24.37
2019-04-29T06:54:34.827Z,23.20
2019-04-29T06:58:39.522Z,22.95
2019-04-29T07:02:45.576Z,23.12
2019-04-29T07:06:57.502Z,21.73
2019-04-29T07:11:01.051Z,19.55
2019-04-29T07:15:07.754Z,22.40
2019-04-29T07:19:10.175Z,29.37
2019-04-29T07:23:14.808Z,29.98
2019-04-29T07:27:19.450Z,22.93
2019-04-29T07:31:28.385Z,24.95
2019-04-29T07:35:31.074Z,21.17
2019-04-29T07:39:35.755Z,16.77
2019-04-29T07:43:43.008Z,18.20
2019-04-29T07:47:56.170Z,14.75
2019-04-29T07:51:55.653Z,17.17
2019-04-29T07:56:01.836Z,19.92
2019-04-29T08:00:08.526Z,17.82
2019-04-29T08:04:13.863Z,19.07
2019-04-29T08:08:21.220Z,18.92
2019-04-29T08:12:27.099Z,22.25
2019-04-29T08:16:31.734Z,20.60
2019-04-29T08:20:39.950Z,22.17
2019-04-29T08:24:45.938Z,23.60
2019-04-29T08:28:52.973Z,23.55
2019-04-29T08:32:56.298Z,45.00
2019-04-29T08:37:01.189Z,31.35
2019-04-29T08:41:05.769Z,27.65
2019-04-29T08:45:28.242Z,24.25
2019-04-29T08:49:33.172Z,22.32
2019-04-29T08:53:38.362Z,22.15
2019-04-29T08:57:43.141Z,25.35
2019-04-29T09:01:47.870Z,23.70
2019-04-29T09:06:05.055Z,24.45
2019-04-29T09:10:01.672Z,21.93
2019-04-29T09:14:06.014Z,21.90
2019-04-29T09:18:11.276Z,20.10
2019-04-29T09:22:18.201Z,20.70
2019-04-29T09:26:32.090Z,22.15
2019-04-29T09:30:38.802Z,20.45
2019-04-29T09:34:43.663Z,20.62
2019-04-29T09:38:48.302Z,20.62
2019-04-29T09:43:25.975Z,19.17
2019-04-29T09:47:31.077Z,20.55
2019-04-29T09:51:35.727Z,21.65
2019-04-29T09:55:41.305Z,19.15
2019-04-29T09:59:51.292Z,19.67
2019-04-29T10:04:08.018Z,20.25
2019-04-29T10:08:12.703Z,19.85
2019-04-29T10:12:17.742Z,20.02
2019-04-29T10:16:39.095Z,19.95
2019-04-29T10:20:48.052Z,19.27
2019-04-29T10:24:52.703Z,19.07
2019-04-29T10:29:01.622Z,18.67
2019-04-29T10:33:06.727Z,18.05
2019-04-29T10:37:11.342Z,20.55
2019-04-29T10:41:24.686Z,19.12
2019-04-29T10:45:57.811Z,17.97
2019-04-29T10:50:16.808Z,17.73
2019-04-29T10:54:21.911Z,17.35
2019-04-29T10:58:31.142Z,15.95
2019-04-29T11:02:44.841Z,16.45
2019-04-29T11:06:47.925Z,21.77
2019-04-29T11:11:02.103Z,25.10
2019-04-29T11:15:01.747Z,19.60
2019-04-29T11:19:08.358Z,20.77
2019-04-29T11:23:35.790Z,17.27
2019-04-29T11:27:48.754Z,15.60
2019-04-29T11:31:55.902Z,16.17
2019-04-29T11:36:22.354Z,14.30
2019-04-29T11:40:42.769Z,16.05
2019-04-29T11:44:34.929Z,14.80
2019-04-29T11:48:40.980Z,15.75
2019-04-29T11:52:45.950Z,15.20
2019-04-29T11:56:50.780Z,15.98
2019-04-29T12:01:03.935Z,13.93
2019-04-29T12:05:18.087Z,13.72
2019-04-29T12:09:25.457Z,13.35
2019-04-29T12:13:41.998Z,14.28
2019-04-29T12:18:24.147Z,14.30
2019-04-29T12:22:30.989Z,13.70
2019-04-29T12:26:43.067Z,13.40
2019-04-29T12:30:43.548Z,14.85
2019-04-29T12:34:56.979Z,16.02
2019-04-29T12:39:43.096Z,24.05
2019-04-29T12:48:02.102Z,13.20
2019-04-29T12:52:06.781Z,30.80
2019-04-29T12:56:12.778Z,25.92
2019-04-29T13:00:23.174Z,11.53
2019-04-29T13:04:51.500Z,27.50
2019-04-29T13:09:01.755Z,30.02
2019-04-29T13:13:08.218Z,12.60
2019-04-29T13:17:41.450Z,14.10
2019-04-29T13:21:48.702Z,19.23
2019-04-29T13:25:56.111Z,15.93
2019-04-29T13:30:01.678Z,29.77
2019-04-29T13:34:23.093Z,24.23
2019-04-29T13:38:15.719Z,19.87
2019-04-29T13:42:24.405Z,11.90
2019-04-29T13:47:07.296Z,25.08
2019-04-29T13:51:34.747Z,11.30
2019-04-29T13:55:47.230Z,12.63
2019-04-29T13:59:51.688Z,16.60
2019-04-29T14:04:02.549Z,13.40
2019-04-29T14:08:08.178Z,10.48
2019-04-29T14:12:47.203Z,14.03
2019-04-29T14:16:25.424Z,11.33
2019-04-29T14:20:35.642Z,12.70
2019-04-29T14:24:49.845Z,11.78
2019-04-29T14:28:55.157Z,10.63
2019-04-29T14:33:03.750Z,10.15
2019-04-29T14:37:24.879Z,8.68
2019-04-29T14:41:21.204Z,8.55
2019-04-29T14:45:32.343Z,8.55
2019-04-29T14:49:45.406Z,8.55
2019-04-29T14:53:56.636Z,8.53
2019-04-29T14:58:00.038Z,8.05
2019-04-29T15:02:16.122Z,8.10
2019-04-29T15:06:23.833Z,7.70
2019-04-29T15:10:31.287Z,8.30
2019-04-29T15:14:49.615Z,8.45
2019-04-29T15:19:13.205Z,7.40
2019-04-29T15:23:27.944Z,7.58
2019-04-29T15:27:25.610Z,6.83
2019-04-29T15:31:30.575Z,6.67
2019-04-29T15:35:35.622Z,8.48
2019-04-29T15:39:45.303Z,6.72
2019-04-29T15:43:48.325Z,6.87
2019-04-29T15:47:54.926Z,6.47
2019-04-29T15:52:01.915Z,7.33
2019-04-29T15:56:27.203Z,20.57
2019-04-29T16:00:22.221Z,9.00
2019-04-29T16:04:32.426Z,5.75
2019-04-29T16:08:59.125Z,7.60
2019-04-29T16:13:16.376Z,8.08
2019-04-29T16:17:26.377Z,6.70
2019-04-29T16:21:32.156Z,8.13
2019-04-29T16:25:40.847Z,5.30
2019-04-29T16:29:46.099Z,7.20
2019-04-29T16:37:57.990Z,5.50
2019-04-29T16:42:14.313Z,4.78
2019-04-29T16:46:27.011Z,6.85
2019-04-29T16:50:28.639Z,4.60
2019-04-29T16:54:34.174Z,6.20
2019-04-29T16:58:39.245Z,5.45
2019-04-29T17:02:45.108Z,5.22
2019-04-29T17:07:11.392Z,5.62
2019-04-29T17:11:11.970Z,5.70
2019-04-29T17:15:24.781Z,5.50
2019-04-29T17:19:23.579Z,4.87
2019-04-29T17:23:31.371Z,4.72
2019-04-29T17:28:11.825Z,4.15
2019-04-29T17:32:44.228Z,4.90
2019-04-29T17:35:19.189Z,6.33
2019-04-29T17:36:43.537Z,4.92
2019-04-29T17:40:56.421Z,4.70
2019-04-29T17:45:10.564Z,4.58
2019-04-29T17:49:30.655Z,30.65
2019-04-29T17:53:42.694Z,7.35
2019-04-29T17:57:54.865Z,9.03
2019-04-29T18:02:21.697Z,7.37
2019-04-29T18:06:30.042Z,5.05
2019-04-29T18:10:41.118Z,10.18
2019-04-29T18:14:45.852Z,7.72
2019-04-29T18:19:01.776Z,5.15
2019-04-29T18:23:31.828Z,4.85
2019-04-29T18:27:37.319Z,6.30
2019-04-29T18:31:44.427Z,3.75
2019-04-29T18:35:50.831Z,6.08
2019-04-29T18:39:57.750Z,4.60
2019-04-29T18:44:05.307Z,4.20
2019-04-29T18:48:16.676Z,5.03
2019-04-29T18:52:25.434Z,7.67
2019-04-29T18:56:23.615Z,19.02
2019-04-29T19:00:28.576Z,8.85
2019-04-29T19:05:01.260Z,8.43
2019-04-29T19:09:17.454Z,4.47
2019-04-29T19:13:16.803Z,6.00
2019-04-29T19:17:21.867Z,8.53
2019-04-29T19:21:30.441Z,6.85
2019-04-29T19:25:33.090Z,5.22
2019-04-29T19:29:38.750Z,6.95
2019-04-29T19:33:43.991Z,5.62
2019-04-29T19:37:48.707Z,4.30
2019-04-29T19:41:53.350Z,4.60
2019-04-29T19:45:59.545Z,5.33
2019-04-29T19:50:06.214Z,5.22
2019-04-29T19:54:12.272Z,4.67
2019-04-29T19:58:17.633Z,5.00
2019-04-29T20:02:23.047Z,8.08
2019-04-29T20:06:30.208Z,9.95
2019-04-29T20:10:44.423Z,11.22
2019-04-29T20:14:48.119Z,5.90
2019-04-29T20:19:16.580Z,14.28
2019-04-29T20:23:24.900Z,12.45
2019-04-29T20:27:28.745Z,13.68
2019-04-29T20:31:30.499Z,23.62
2019-04-29T20:35:40.517Z,33.10
2019-04-29T20:39:45.420Z,11.57
2019-04-29T20:43:49.887Z,10.28
2019-04-29T20:47:58.016Z,13.48
2019-04-29T20:52:20.339Z,8.25
2019-04-29T20:56:27.561Z,8.35
2019-04-29T21:00:28.734Z,6.58
2019-04-29T21:04:39.139Z,9.38
2019-04-29T21:08:40.019Z,8.28
2019-04-29T21:12:59.550Z,6.83
2019-04-29T21:17:09.507Z,8.68
2019-04-29T21:21:10.856Z,4.53
2019-04-29T21:25:15.606Z,5.00
2019-04-29T21:29:20.250Z,16.60
2019-04-29T21:33:25.503Z,14.47
2019-04-29T21:37:40.062Z,13.43
2019-04-29T21:41:55.466Z,11.57
2019-04-29T21:45:59.355Z,12.82
2019-04-29T21:50:05.072Z,5.12
2019-04-29T21:54:14.093Z,8.63
2019-04-29T21:58:16.245Z,4.75
2019-04-29T22:02:21.011Z,5.25
2019-04-29T22:06:29.112Z,6.45
2019-04-29T22:10:35.082Z,6.87
2019-04-29T22:14:39.708Z,4.45
2019-04-29T22:18:50.768Z,5.33
2019-04-29T22:22:50.949Z,6.70
2019-04-29T22:27:03.388Z,5.30
2019-04-29T22:31:02.375Z,5.95
2019-04-29T22:35:08.634Z,6.17
2019-04-29T22:39:13.242Z,5.22
2019-04-29T22:43:36.015Z,4.78
2019-04-29T22:47:42.007Z,4.70
2019-04-29T22:51:49.697Z,4.55
2019-04-29T22:55:53.127Z,4.53
2019-04-29T22:59:58.076Z,4.60
2019-04-29T23:04:02.720Z,5.08
2019-04-29T23:08:07.426Z,4.67
2019-04-29T23:12:17.031Z,5.05
2019-04-29T23:16:18.518Z,4.55
2019-04-29T23:20:41.198Z,5.10
2019-04-29T23:25:11.052Z,5.28
2019-04-29T23:29:15.732Z,5.15
2019-04-29T23:33:23.996Z,4.85
2019-04-29T23:37:29.474Z,5.00
2019-04-29T23:41:36.659Z,5.20
2019-04-29T23:45:40.678Z,4.95
2019-04-29T23:49:46.812Z,4.90
2019-04-29T23:53:56.019Z,5.97
2019-04-29T23:58:07.355Z,5.40
